Time;durP1;ratioP1;P1;durP2;ratioP2;P2;SDS_P1;SDS_P2;PMS_P1;PMS_P2;Temp;Humidity;BMP_temperature;BMP_pressure;BME280_temperature;BME280_humidity;BME280_pressure;Samples;Min_cycle;Max_cycle;Signal;HPM_P1;HPM_P2
2022/12/10 00:00:42;;;;;;;27.63;20.00;;;4.00;99.90;;;;;;5029668;28;20258;-65
2022/12/10 00:03:08;;;;;;;27.20;19.40;;;4.30;99.90;;;;;;5032232;28;20675;-65
2022/12/10 00:05:34;;;;;;;26.67;20.23;;;3.60;99.90;;;;;;5030269;28;20625;-64
2022/12/10 00:08:00;;;;;;;29.23;20.27;;;4.30;99.90;;;;;;5025423;28;20656;-65
2022/12/10 00:10:25;;;;;;;29.00;20.23;;;4.20;99.90;;;;;;5028198;28;20229;-65
2022/12/10 00:12:51;;;;;;;27.90;20.47;;;4.20;99.90;;;;;;5028285;28;20194;-65
2022/12/10 00:15:17;;;;;;;22.70;18.60;;;3.50;99.90;;;;;;5032500;28;20461;-65
2022/12/10 00:17:42;;;;;;;27.67;20.53;;;4.10;99.90;;;;;;5023788;28;20277;-65
2022/12/10 00:20:09;;;;;;;25.20;20.00;;;4.30;99.90;;;;;;5031684;28;20680;-65
2022/12/10 00:22:35;;;;;;;29.52;20.33;;;4.40;99.90;;;;;;5028540;28;20218;-64
2022/12/10 00:25:01;;;;;;;26.48;20.23;;;4.40;99.90;;;;;;5031072;28;20219;-64
2022/12/10 00:27:26;;;;;;;29.20;19.67;;;4.10;99.90;;;;;;5030989;28;20180;-65
2022/12/10 00:29:52;;;;;;;26.33;20.70;;;4.10;99.90;;;;;;5032402;28;20190;-65
2022/12/10 00:32:18;;;;;;;30.17;21.70;;;4.10;99.90;;;;;;5036064;28;20275;-66
2022/12/10 00:34:43;;;;;;;26.50;19.87;;;4.30;99.90;;;;;;5030466;28;20203;-64
2022/12/10 00:37:09;;;;;;;34.30;24.57;;;4.40;99.90;;;;;;5028947;28;20183;-65
2022/12/10 00:39:35;;;;;;;25.03;18.03;;;3.30;99.90;;;;;;5031091;28;20187;-64
2022/12/10 00:42:00;;;;;;;23.47;19.00;;;4.10;99.90;;;;;;5030888;28;20194;-64
2022/12/10 00:44:26;;;;;;;24.10;19.80;;;4.30;99.90;;;;;;5034798;28;20233;-64
2022/12/10 00:46:51;;;;;;;25.53;19.90;;;4.00;99.90;;;;;;5035077;28;20280;-65
2022/12/10 00:49:17;;;;;;;24.17;19.47;;;4.20;99.90;;;;;;5036614;28;20194;-64
2022/12/10 00:51:43;;;;;;;23.47;18.17;;;3.90;99.90;;;;;;5029617;28;20186;-64
2022/12/10 00:54:09;;;;;;;27.10;20.47;;;4.50;99.90;;;;;;5025652;28;20261;-65
2022/12/10 00:56:35;;;;;;;26.77;19.60;;;3.90;99.90;;;;;;5038765;28;20188;-65
2022/12/10 00:59:01;;;;;;;29.57;19.70;;;4.00;99.90;;;;;;5030507;28;20192;-65
2022/12/10 01:01:36;;;;;;;25.63;19.05;;;4.00;99.90;;;;;;5030384;28;20187;-65
2022/12/10 01:04:08;;;;;;;24.05;19.35;;;3.90;99.90;;;;;;5028233;28;20271;-64
2022/12/10 01:06:36;;;;;;;27.65;18.45;;;3.90;99.90;;;;;;5031005;28;20208;-66
2022/12/10 01:09:05;;;;;;;23.42;17.35;;;4.00;99.90;;;;;;5024225;28;20241;-64
2022/12/10 01:11:37;;;;;;;29.35;20.10;;;4.20;99.90;;;;;;5031700;28;20360;-64
2022/12/10 01:14:03;;;;;;;25.90;18.30;;;4.20;99.90;;;;;;5029470;28;20183;-65
2022/12/10 01:16:29;;;;;;;25.23;19.58;;;4.20;99.90;;;;;;5034258;28;20213;-65
2022/12/10 01:18:56;;;;;;;27.93;18.83;;;3.40;99.90;;;;;;5023105;28;20218;-65
2022/12/10 01:21:23;;;;;;;23.55;17.83;;;4.00;99.90;;;;;;5030540;28;20728;-65
2022/12/10 01:23:50;;;;;;;24.17;18.27;;;4.10;99.90;;;;;;5027040;28;20198;-65
2022/12/10 01:26:22;;;;;;;24.45;18.23;;;4.10;99.90;;;;;;5028332;28;20202;-64
2022/12/10 01:28:49;;;;;;;24.92;18.67;;;4.10;99.90;;;;;;5030394;28;20237;-64
2022/12/10 01:31:34;;;;;;;28.02;20.20;;;4.20;99.90;;;;;;5030359;28;20188;-64
2022/12/10 01:34:02;;;;;;;24.25;18.55;;;4.20;99.90;;;;;;5029548;28;20204;-65
2022/12/10 01:36:31;;;;;;;23.27;17.40;;;4.00;99.90;;;;;;5029837;28;20657;-65
2022/12/10 01:38:57;;;;;;;24.52;17.98;;;4.10;99.90;;;;;;5021658;28;20215;-64
2022/12/10 01:41:27;;;;;;;23.75;18.92;;;4.00;99.90;;;;;;5028703;28;20472;-63
2022/12/10 01:43:54;;;;;;;24.27;18.00;;;4.00;99.90;;;;;;5029029;28;20206;-65
2022/12/10 01:46:21;;;;;;;30.13;20.40;;;4.20;99.90;;;;;;5024100;28;20203;-66
2022/12/10 01:48:46;;;;;;;22.60;18.50;;;4.00;99.90;;;;;;5029429;28;20180;-66
2022/12/10 01:51:14;;;;;;;23.00;17.50;;;3.90;99.90;;;;;;5030902;28;20191;-66
2022/12/10 01:53:41;;;;;;;23.23;17.02;;;3.30;99.90;;;;;;5025349;28;20442;-66
2022/12/10 01:56:10;;;;;;;22.90;17.98;;;4.40;99.90;;;;;;5028252;28;20416;-65
2022/12/10 01:58:36;;;;;;;22.40;18.95;;;4.10;99.90;;;;;;5033135;28;20192;-64
2022/12/10 02:01:30;;;;;;;24.52;17.95;;;4.20;99.90;;;;;;5029372;28;20198;-66
2022/12/10 02:04:20;;;;;;;23.80;17.77;;;4.20;99.90;;;;;;5030846;28;20199;-65
2022/12/10 02:06:58;;;;;;;25.05;17.83;;;4.20;99.90;;;;;;5032532;28;20209;-65
2022/12/10 02:09:28;;;;;;;25.73;18.10;;;4.20;99.90;;;;;;5026138;28;20188;-65
2022/12/10 02:11:57;;;;;;;22.65;16.80;;;4.20;99.90;;;;;;5025322;28;20234;-65
2022/12/10 02:14:48;;;;;;;19.75;16.77;;;4.10;99.90;;;;;;5031040;28;20234;-64
2022/12/10 02:17:25;;;;;;;24.25;17.40;;;3.90;99.90;;;;;;5028889;28;20664;-65
2022/12/10 02:19:51;;;;;;;21.52;16.27;;;4.00;99.90;;;;;;5028195;28;20563;-64
2022/12/10 02:22:19;;;;;;;24.00;17.93;;;4.30;99.90;;;;;;5027146;28;20189;-65
2022/12/10 02:24:48;;;;;;;24.08;18.42;;;3.50;99.90;;;;;;5032617;28;20203;-64
2022/12/10 02:27:35;;;;;;;22.25;16.67;;;3.90;99.90;;;;;;5029501;28;20208;-65
2022/12/10 02:30:01;;;;;;;21.65;17.30;;;4.00;99.90;;;;;;5030269;28;20183;-64
2022/12/10 02:32:34;;;;;;;25.98;18.20;;;3.50;99.90;;;;;;5029892;28;20177;-64
2022/12/10 02:35:05;;;;;;;21.27;16.75;;;4.00;99.90;;;;;;5029682;28;20229;-64
2022/12/10 02:37:35;;;;;;;22.73;18.10;;;4.10;99.90;;;;;;5021500;28;20278;-64
2022/12/10 02:40:07;;;;;;;22.67;17.45;;;4.70;99.90;;;;;;5028772;28;20184;-65
2022/12/10 02:42:37;;;;;;;22.80;17.75;;;4.20;99.90;;;;;;5035577;28;20188;-65
2022/12/10 02:45:05;;;;;;;22.65;17.05;;;3.90;99.90;;;;;;5029530;28;20204;-65
2022/12/10 02:47:31;;;;;;;21.35;16.48;;;4.00;99.90;;;;;;5027116;28;20191;-65
2022/12/10 02:49:59;;;;;;;23.98;17.70;;;4.10;99.90;;;;;;5026357;28;20643;-65
2022/12/10 02:52:25;;;;;;;20.75;16.23;;;4.00;99.90;;;;;;5026980;28;20184;-64
2022/12/10 02:54:51;;;;;;;33.75;19.05;;;4.00;99.90;;;;;;5029667;28;20288;-64
2022/12/10 02:57:40;;;;;;;22.13;16.42;;;4.00;99.90;;;;;;5029413;28;20241;-64
2022/12/10 03:00:09;;;;;;;21.27;16.70;;;3.90;99.90;;;;;;5025192;28;20188;-62
2022/12/10 03:03:26;;;;;;;25.60;17.08;;;3.80;99.90;;;;;;5027426;28;20456;-64
2022/12/10 03:06:21;;;;;;;23.98;18.25;;;3.80;99.90;;;;;;5021924;28;20564;-66
2022/12/10 03:08:56;;;;;;;26.75;19.83;;;3.60;99.90;;;;;;5022514;28;20183;-65
2022/12/10 03:11:23;;;;;;;23.58;16.90;;;3.70;99.90;;;;;;5028240;28;20672;-65
2022/12/10 03:13:57;;;;;;;22.98;16.63;;;3.60;99.90;;;;;;5028763;28;20640;-65
2022/12/10 03:16:25;;;;;;;23.23;17.73;;;3.80;99.90;;;;;;5022073;28;20193;-64
2022/12/10 03:18:56;;;;;;;24.40;18.73;;;3.80;99.90;;;;;;5027301;28;20227;-65
2022/12/10 03:21:23;;;;;;;22.92;16.90;;;3.70;99.90;;;;;;5028360;28;20190;-66
2022/12/10 03:23:50;;;;;;;24.45;18.25;;;3.60;99.90;;;;;;5031450;28;20187;-65
2022/12/10 03:26:17;;;;;;;23.70;17.05;;;3.60;99.90;;;;;;5031083;28;20221;-65
2022/12/10 03:28:52;;;;;;;24.02;18.15;;;3.50;99.90;;;;;;5029646;28;20174;-64
2022/12/10 03:31:19;;;;;;;21.77;17.30;;;3.90;99.90;;;;;;5027861;28;20182;-64
2022/12/10 03:33:47;;;;;;;23.17;17.98;;;3.60;99.90;;;;;;5030867;28;20573;-64
2022/12/10 03:36:14;;;;;;;23.13;17.63;;;3.70;99.90;;;;;;5030055;28;20213;-64
2022/12/10 03:38:40;;;;;;;34.28;22.83;;;3.70;99.90;;;;;;5029873;28;20187;-64
2022/12/10 03:41:06;;;;;;;23.67;18.80;;;3.80;99.90;;;;;;5032139;28;20184;-65
2022/12/10 03:43:32;;;;;;;23.67;18.23;;;4.10;99.90;;;;;;5033975;28;20678;-65
2022/12/10 03:45:58;;;;;;;21.90;17.60;;;3.70;99.90;;;;;;5029637;28;20530;-65
2022/12/10 03:48:23;;;;;;;27.87;18.27;;;3.80;99.90;;;;;;5031533;28;20445;-66
2022/12/10 03:50:49;;;;;;;25.73;19.40;;;3.90;99.90;;;;;;5033849;28;20453;-65
2022/12/10 03:53:15;;;;;;;24.50;17.97;;;3.50;99.90;;;;;;5031544;28;20187;-64
2022/12/10 03:55:42;;;;;;;23.45;17.80;;;2.80;99.90;;;;;;5027688;28;20679;-64
2022/12/10 03:58:08;;;;;;;22.10;18.45;;;3.50;99.90;;;;;;5035858;28;20186;-65
2022/12/10 04:00:33;;;;;;;23.83;18.05;;;3.50;99.90;;;;;;5029510;28;20263;-65
2022/12/10 04:02:59;;;;;;;24.30;18.90;;;3.70;99.90;;;;;;5031359;28;20182;-65
2022/12/10 04:05:25;;;;;;;23.03;17.97;;;3.40;99.90;;;;;;5028514;28;20218;-64
2022/12/10 04:07:50;;;;;;;24.13;17.93;;;3.70;99.90;;;;;;5028150;28;20242;-65
2022/12/10 04:10:16;;;;;;;22.73;17.40;;;3.90;99.90;;;;;;5030039;28;20641;-65
2022/12/10 04:12:41;;;;;;;21.60;16.90;;;3.90;99.90;;;;;;5028692;28;20191;-65
2022/12/10 04:17:52;;;;;;;22.63;17.60;;;4.00;99.90;;;;;;5029806;28;20198;-64
2022/12/10 04:28:30;;;;;;;30.52;17.88;;;3.80;99.90;;;;;;5023936;28;20206;-67
2022/12/10 04:30:56;;;;;;;34.70;17.03;;;3.70;99.90;;;;;;5028253;28;20183;-69
2022/12/10 04:33:22;;;;;;;24.00;17.50;;;3.60;99.90;;;;;;5023884;28;20192;-69
2022/12/10 04:35:47;;;;;;;22.00;15.97;;;3.90;99.90;;;;;;5021193;28;20241;-66
2022/12/10 04:38:13;;;;;;;27.63;17.80;;;3.70;99.90;;;;;;5024391;28;20283;-66
2022/12/10 04:40:38;;;;;;;21.23;16.20;;;3.70;99.90;;;;;;5016688;28;20191;-64
2022/12/10 04:43:04;;;;;;;21.67;18.50;;;3.90;99.90;;;;;;5026022;28;20562;-63
2022/12/10 04:45:30;;;;;;;22.30;18.33;;;3.60;99.90;;;;;;5025193;28;20215;-63
2022/12/10 04:47:55;;;;;;;21.10;16.90;;;3.90;99.90;;;;;;5028237;28;20881;-64
2022/12/10 04:50:21;;;;;;;22.63;17.53;;;3.30;99.90;;;;;;5026984;28;20240;-63
2022/12/10 04:52:46;;;;;;;22.90;17.23;;;3.80;99.90;;;;;;5022771;28;20183;-63
2022/12/10 04:55:12;;;;;;;22.57;18.07;;;3.90;99.90;;;;;;5021964;28;20586;-65
2022/12/10 04:57:38;;;;;;;24.33;19.00;;;3.30;99.90;;;;;;5021266;28;20224;-65
2022/12/10 05:00:04;;;;;;;23.27;17.90;;;3.60;99.90;;;;;;5023485;28;20266;-66
2022/12/10 05:02:29;;;;;;;21.88;17.38;;;3.60;99.90;;;;;;5022484;28;20398;-66
2022/12/10 05:04:55;;;;;;;22.97;17.87;;;3.40;99.90;;;;;;5026800;28;20214;-65
2022/12/10 05:07:20;;;;;;;22.30;17.57;;;4.10;99.90;;;;;;5025799;28;20744;-65
2022/12/10 05:09:46;;;;;;;22.17;18.20;;;3.10;99.90;;;;;;5025239;28;20224;-64
2022/12/10 05:12:13;;;;;;;24.33;18.00;;;3.70;99.90;;;;;;5025220;28;20191;-67
2022/12/10 05:14:39;;;;;;;22.95;17.25;;;3.70;99.90;;;;;;5023346;28;20203;-67
2022/12/10 05:17:04;;;;;;;21.13;17.50;;;3.60;99.90;;;;;;5027458;28;20176;-65
2022/12/10 05:19:30;;;;;;;24.70;18.23;;;3.60;99.90;;;;;;5021255;28;20195;-65
2022/12/10 05:24:40;;;;;;;25.27;18.08;;;3.50;99.90;;;;;;5028886;28;20214;-66
2022/12/10 05:27:05;;;;;;;22.10;16.40;;;3.80;99.90;;;;;;5017881;28;20212;-66
2022/12/10 05:29:32;;;;;;;22.80;17.23;;;3.90;99.90;;;;;;5024028;28;20246;-65
2022/12/10 05:31:58;;;;;;;23.35;18.25;;;3.50;99.90;;;;;;5026413;28;20206;-65
2022/12/10 05:34:24;;;;;;;23.40;17.73;;;3.60;99.90;;;;;;5028846;28;20343;-67
2022/12/10 05:36:49;;;;;;;22.73;17.27;;;3.60;99.90;;;;;;5027901;28;20212;-66
2022/12/10 05:39:15;;;;;;;26.67;18.80;;;3.80;99.90;;;;;;5025080;28;20218;-65
2022/12/10 05:41:41;;;;;;;24.80;18.80;;;3.90;99.90;;;;;;5023008;28;20202;-64
2022/12/10 05:44:08;;;;;;;26.83;19.05;;;3.60;99.90;;;;;;5022798;28;20194;-65
2022/12/10 05:46:35;;;;;;;24.77;17.92;;;3.70;99.90;;;;;;5022029;28;20683;-65
2022/12/10 05:49:04;;;;;;;26.52;18.15;;;3.60;99.90;;;;;;5021504;28;20179;-66
2022/12/10 05:51:31;;;;;;;25.40;19.70;;;3.20;99.90;;;;;;5023459;28;20192;-66
2022/12/10 05:53:58;;;;;;;24.52;17.90;;;3.70;99.90;;;;;;5025614;28;20175;-64
2022/12/10 05:56:25;;;;;;;22.23;16.85;;;3.90;99.90;;;;;;5021316;28;20275;-64
2022/12/10 05:58:55;;;;;;;24.13;18.02;;;3.00;99.90;;;;;;5033575;28;20604;-64
2022/12/10 06:01:23;;;;;;;26.75;19.88;;;3.50;99.90;;;;;;5018047;28;20786;-64
2022/12/10 06:03:50;;;;;;;22.65;18.08;;;3.50;99.90;;;;;;5029588;28;20186;-66
2022/12/10 06:06:25;;;;;;;21.50;17.88;;;3.50;99.90;;;;;;5024981;28;20233;-69
2022/12/10 06:08:51;;;;;;;23.85;17.35;;;3.50;99.90;;;;;;5020635;28;20270;-67
2022/12/10 06:11:17;;;;;;;24.63;19.00;;;3.00;99.90;;;;;;5024680;28;20713;-65
2022/12/10 06:13:43;;;;;;;25.43;17.63;;;3.00;99.90;;;;;;5023122;28;20211;-65
2022/12/10 06:16:11;;;;;;;24.20;17.53;;;3.40;99.90;;;;;;5022569;28;20959;-64
2022/12/10 06:18:37;;;;;;;27.17;17.30;;;3.20;99.90;;;;;;5024590;28;20475;-64
2022/12/10 06:21:05;;;;;;;27.38;18.58;;;3.50;99.90;;;;;;5016325;28;20199;-64
2022/12/10 06:23:31;;;;;;;23.63;17.70;;;3.40;99.90;;;;;;5019870;28;20778;-64
2022/12/10 06:25:56;;;;;;;26.47;18.80;;;3.40;99.90;;;;;;5019863;28;20301;-63
2022/12/10 06:28:22;;;;;;;23.53;17.70;;;3.50;99.90;;;;;;5020998;28;20541;-64
2022/12/10 06:30:47;;;;;;;25.40;18.30;;;3.20;99.90;;;;;;5023218;28;20190;-64
2022/12/10 06:33:13;;;;;;;28.10;19.93;;;3.50;99.90;;;;;;5019627;28;20194;-63
2022/12/10 06:35:39;;;;;;;24.80;18.03;;;3.40;99.90;;;;;;5023963;28;20214;-65
2022/12/10 06:38:04;;;;;;;25.17;20.03;;;3.30;99.90;;;;;;5025913;28;20190;-63
2022/12/10 06:40:30;;;;;;;23.00;17.33;;;3.20;99.90;;;;;;5021064;28;20206;-67
2022/12/10 06:42:55;;;;;;;25.20;17.93;;;3.40;99.90;;;;;;5020733;28;20194;-67
2022/12/10 06:45:21;;;;;;;24.20;18.43;;;2.70;99.90;;;;;;5022967;28;20233;-66
2022/12/10 06:47:47;;;;;;;25.80;18.60;;;3.30;99.90;;;;;;5018695;28;20276;-62
2022/12/10 06:50:12;;;;;;;26.80;18.43;;;3.50;99.90;;;;;;5024376;28;20195;-62
2022/12/10 06:52:39;;;;;;;21.53;17.50;;;3.40;99.90;;;;;;5020097;28;20198;-62
2022/12/10 06:55:05;;;;;;;22.88;18.55;;;3.50;99.90;;;;;;5025954;28;20729;-63
2022/12/10 06:57:30;;;;;;;23.83;18.97;;;3.40;99.90;;;;;;5018818;28;20219;-63
2022/12/10 06:59:56;;;;;;;26.20;18.97;;;3.50;99.90;;;;;;5023198;28;20994;-63
2022/12/10 07:02:22;;;;;;;25.43;19.33;;;3.30;99.90;;;;;;5023359;28;20195;-65
2022/12/10 07:04:47;;;;;;;25.57;18.47;;;3.10;99.90;;;;;;5025773;28;20242;-64
2022/12/10 07:07:14;;;;;;;25.75;18.02;;;3.20;99.90;;;;;;5020428;28;20590;-63
2022/12/10 07:09:40;;;;;;;26.23;18.10;;;3.40;99.90;;;;;;5021555;28;20183;-63
2022/12/10 07:12:05;;;;;;;26.37;19.03;;;3.30;99.90;;;;;;5026268;28;20179;-63
2022/12/10 07:14:31;;;;;;;23.70;19.10;;;3.40;99.90;;;;;;5021236;28;20649;-64
2022/12/10 07:16:57;;;;;;;26.70;19.93;;;3.20;99.90;;;;;;5018192;28;20191;-62
2022/12/10 07:19:23;;;;;;;25.73;18.23;;;3.50;99.90;;;;;;5021116;28;20191;-65
2022/12/10 07:21:48;;;;;;;26.77;18.10;;;3.40;99.90;;;;;;5024575;28;20199;-65
2022/12/10 07:24:17;;;;;;;23.47;16.77;;;3.50;99.90;;;;;;5022638;28;20207;-65
2022/12/10 07:26:44;;;;;;;22.75;17.35;;;2.70;99.90;;;;;;5019611;28;20593;-72
2022/12/10 07:29:15;;;;;;;24.63;18.48;;;2.90;99.90;;;;;;5029359;28;20203;-64
2022/12/10 07:31:40;;;;;;;23.58;17.95;;;2.80;99.90;;;;;;5018383;28;20237;-65
2022/12/10 07:34:06;;;;;;;21.00;17.43;;;3.60;99.90;;;;;;5018878;28;20184;-64
2022/12/10 07:36:32;;;;;;;22.92;18.10;;;3.30;99.90;;;;;;5018702;28;20450;-67
2022/12/10 07:38:58;;;;;;;23.63;18.37;;;3.50;99.90;;;;;;5021844;28;20214;-65
2022/12/10 07:41:25;;;;;;;24.00;18.50;;;3.50;99.90;;;;;;5020910;28;20269;-64
2022/12/10 07:43:51;;;;;;;27.25;17.63;;;3.50;99.90;;;;;;5022855;28;20450;-64
2022/12/10 07:46:18;;;;;;;22.63;18.35;;;3.30;99.90;;;;;;5017018;28;20264;-64
2022/12/10 07:48:45;;;;;;;28.38;19.65;;;3.40;99.90;;;;;;5022469;28;20183;-64
2022/12/10 07:51:11;;;;;;;23.77;18.27;;;3.20;99.90;;;;;;5014405;28;20191;-66
2022/12/10 07:53:37;;;;;;;24.27;17.47;;;3.70;99.90;;;;;;5017786;28;20189;-63
2022/12/10 07:56:03;;;;;;;22.33;17.63;;;3.30;99.90;;;;;;5021030;28;20561;-63
2022/12/10 07:58:29;;;;;;;26.15;18.98;;;3.40;99.90;;;;;;5024315;28;20182;-64
2022/12/10 08:00:55;;;;;;;23.75;17.83;;;3.30;99.90;;;;;;5021071;28;20254;-63
2022/12/10 08:03:20;;;;;;;24.00;17.43;;;3.40;99.90;;;;;;5021489;28;20198;-64
2022/12/10 08:05:46;;;;;;;23.30;19.00;;;3.50;99.90;;;;;;5015069;28;20305;-63
2022/12/10 08:08:12;;;;;;;23.90;17.70;;;3.40;99.90;;;;;;5023260;28;20221;-63
2022/12/10 08:10:38;;;;;;;23.77;18.17;;;3.60;99.90;;;;;;5028382;28;20199;-62
2022/12/10 08:13:05;;;;;;;23.77;18.92;;;3.70;99.90;;;;;;5020731;28;20294;-63
2022/12/10 08:15:31;;;;;;;23.05;17.83;;;3.70;99.90;;;;;;5026912;28;20289;-65
2022/12/10 08:17:57;;;;;;;22.38;18.20;;;3.50;99.90;;;;;;5031036;28;20189;-67
2022/12/10 08:20:24;;;;;;;25.67;18.77;;;3.60;99.90;;;;;;5025362;28;20188;-68
2022/12/10 08:22:50;;;;;;;24.85;17.70;;;3.80;99.90;;;;;;5030849;28;20463;-62
2022/12/10 08:25:16;;;;;;;28.95;21.35;;;3.60;99.90;;;;;;5026958;28;20234;-63
2022/12/10 08:27:42;;;;;;;25.30;19.10;;;3.70;99.90;;;;;;5026929;28;20720;-64
2022/12/10 08:30:08;;;;;;;20.87;16.90;;;3.80;99.90;;;;;;5029864;28;20187;-64
2022/12/10 08:32:34;;;;;;;22.92;17.75;;;3.60;99.90;;;;;;5023608;28;20990;-63
2022/12/10 08:35:00;;;;;;;21.83;16.40;;;3.90;99.90;;;;;;5028094;28;20243;-62
2022/12/10 08:37:25;;;;;;;23.20;16.97;;;3.10;99.90;;;;;;5026696;28;20504;-62
2022/12/10 08:39:51;;;;;;;22.23;16.80;;;3.80;99.90;;;;;;5025770;28;21034;-61
2022/12/10 08:42:17;;;;;;;22.03;16.53;;;3.60;99.90;;;;;;5027540;28;20184;-63
2022/12/10 08:44:42;;;;;;;25.87;17.97;;;3.70;99.90;;;;;;5022495;28;20710;-64
2022/12/10 08:47:08;;;;;;;24.00;19.17;;;3.60;99.90;;;;;;5023264;28;20251;-64
2022/12/10 08:49:34;;;;;;;22.40;17.67;;;3.40;99.90;;;;;;5021418;28;20175;-67
2022/12/10 08:51:59;;;;;;;23.40;17.10;;;3.60;99.90;;;;;;5026400;28;20197;-65
2022/12/10 08:54:25;;;;;;;23.50;16.97;;;3.20;99.90;;;;;;5025315;28;20571;-66
2022/12/10 08:56:51;;;;;;;24.87;19.37;;;3.20;99.90;;;;;;5022566;28;20186;-63
2022/12/10 08:59:16;;;;;;;26.83;20.33;;;3.60;99.90;;;;;;5030937;28;20182;-62
2022/12/10 09:01:42;;;;;;;25.87;19.00;;;3.60;99.90;;;;;;5024877;28;20202;-67
2022/12/10 09:04:08;;;;;;;25.43;18.93;;;3.70;99.90;;;;;;5025941;28;20186;-63
2022/12/10 09:06:34;;;;;;;24.10;19.13;;;3.80;99.90;;;;;;5022465;28;20219;-62
2022/12/10 09:09:00;;;;;;;24.80;17.67;;;3.80;99.90;;;;;;5022001;28;20938;-66
2022/12/10 09:11:32;;;;;;;22.92;19.00;;;3.60;99.90;;;;;;5027759;28;20175;-65
2022/12/10 09:13:58;;;;;;;25.60;18.98;;;3.70;99.90;;;;;;5024523;28;20194;-64
2022/12/10 09:16:32;;;;;;;25.60;19.42;;;3.80;99.90;;;;;;5028074;28;20191;-64
2022/12/10 09:18:58;;;;;;;21.90;17.98;;;3.70;99.90;;;;;;5025941;28;20239;-67
2022/12/10 09:21:24;;;;;;;25.83;17.60;;;3.80;99.90;;;;;;5027892;28;20182;-66
2022/12/10 09:23:54;;;;;;;25.77;18.30;;;3.90;99.90;;;;;;5023184;28;20193;-67
2022/12/10 09:26:20;;;;;;;22.63;17.13;;;3.80;99.90;;;;;;5024569;28;20875;-65
2022/12/10 09:28:46;;;;;;;26.90;18.17;;;4.00;99.90;;;;;;5024828;28;20190;-64
2022/12/10 09:31:14;;;;;;;24.98;18.00;;;3.50;99.90;;;;;;5027497;28;20191;-66
2022/12/10 09:33:40;;;;;;;27.15;17.90;;;3.50;99.90;;;;;;5025955;28;20623;-64
2022/12/10 09:36:08;;;;;;;26.15;18.67;;;4.20;99.90;;;;;;5029136;28;20225;-66
2022/12/10 09:38:34;;;;;;;23.60;17.85;;;4.00;99.90;;;;;;5023265;28;20191;-69
2022/12/10 09:41:05;;;;;;;28.55;19.60;;;4.00;99.90;;;;;;5025453;28;20478;-67
2022/12/10 09:43:52;;;;;;;24.70;19.05;;;3.90;99.90;;;;;;5020659;28;20183;-67
2022/12/10 09:46:21;;;;;;;24.63;18.30;;;3.80;99.90;;;;;;5022613;28;20608;-68
2022/12/10 09:49:07;;;;;;;39.45;27.40;;;3.50;99.90;;;;;;5021646;28;20184;-67
2022/12/10 09:51:36;;;;;;;25.63;18.85;;;4.10;99.90;;;;;;5021998;28;20732;-68
2022/12/10 09:54:11;;;;;;;24.27;17.55;;;4.00;99.90;;;;;;5016218;28;20198;-68
2022/12/10 09:56:41;;;;;;;24.58;19.27;;;4.20;99.90;;;;;;5021253;28;20187;-68
2022/12/10 09:59:18;;;;;;;21.85;16.92;;;3.80;99.90;;;;;;5027958;28;20902;-68
2022/12/10 10:01:47;;;;;;;23.08;17.80;;;3.90;99.90;;;;;;5021492;28;20284;-64
2022/12/10 10:04:16;;;;;;;24.27;17.85;;;3.90;99.90;;;;;;5021837;28;20255;-65
2022/12/10 10:06:43;;;;;;;22.00;16.40;;;3.90;99.90;;;;;;5025524;28;20226;-64
2022/12/10 10:09:12;;;;;;;26.13;18.58;;;3.90;99.90;;;;;;5026389;28;20183;-64
2022/12/10 10:11:38;;;;;;;20.83;17.15;;;3.70;99.90;;;;;;5028319;28;20584;-64
2022/12/10 10:14:15;;;;;;;20.55;16.98;;;4.00;99.90;;;;;;5018334;28;20230;-64
2022/12/10 10:16:47;;;;;;;26.20;19.75;;;3.90;99.90;;;;;;5015442;28;20183;-64
2022/12/10 10:19:16;;;;;;;23.33;18.45;;;3.40;99.90;;;;;;5021980;28;20198;-64
2022/12/10 10:21:45;;;;;;;26.73;18.80;;;3.90;99.90;;;;;;5023853;28;20602;-65
2022/12/10 10:24:33;;;;;;;26.98;19.13;;;4.00;99.90;;;;;;5022358;28;20211;-64
2022/12/10 10:27:21;;;;;;;24.50;19.58;;;3.40;99.90;;;;;;5016276;28;20203;-64
2022/12/10 10:29:51;;;;;;;30.80;18.15;;;4.10;99.90;;;;;;5022395;28;20604;-65
2022/12/10 10:32:19;;;;;;;23.73;18.13;;;4.20;99.90;;;;;;5024070;28;20188;-65
2022/12/10 10:34:45;;;;;;;23.67;18.65;;;3.90;99.90;;;;;;5028409;28;20620;-65
2022/12/10 10:37:29;;;;;;;27.63;20.42;;;4.20;99.90;;;;;;5026824;28;20178;-66
2022/12/10 10:39:56;;;;;;;27.60;19.55;;;4.00;99.90;;;;;;5028444;28;20583;-64
2022/12/10 10:42:34;;;;;;;22.38;16.40;;;4.00;99.90;;;;;;5020163;28;20196;-64
2022/12/10 10:44:59;;;;;;;29.52;18.77;;;4.20;99.90;;;;;;5026103;28;20312;-65
2022/12/10 10:47:32;;;;;;;28.23;19.73;;;4.30;99.90;;;;;;5022042;28;20629;-64
2022/12/10 10:49:59;;;;;;;23.58;17.60;;;4.10;99.90;;;;;;5027367;28;20524;-65
2022/12/10 10:52:46;;;;;;;22.23;17.52;;;4.10;99.90;;;;;;5022684;28;20849;-64
2022/12/10 10:55:34;;;;;;;22.40;15.95;;;4.60;99.90;;;;;;5024584;28;20207;-65
2022/12/10 10:58:00;;;;;;;24.80;17.80;;;4.20;99.90;;;;;;5015982;28;20210;-65
2022/12/10 11:00:26;;;;;;;23.77;17.30;;;4.50;99.90;;;;;;5028437;28;20214;-66
2022/12/10 11:02:52;;;;;;;21.90;16.70;;;4.50;99.90;;;;;;5021431;28;20183;-64
2022/12/10 11:05:26;;;;;;;23.40;18.10;;;4.20;99.90;;;;;;5020897;28;20256;-64
2022/12/10 11:08:12;;;;;;;23.63;17.00;;;4.30;99.90;;;;;;5018255;28;20186;-64
2022/12/10 11:10:51;;;;;;;20.95;16.58;;;4.20;99.90;;;;;;5026747;28;20347;-64
2022/12/10 11:13:23;;;;;;;21.15;16.88;;;4.30;99.90;;;;;;5027573;28;20180;-65
2022/12/10 11:15:59;;;;;;;20.45;16.58;;;4.60;99.90;;;;;;5028407;28;20301;-64
2022/12/10 11:18:33;;;;;;;20.80;16.58;;;4.60;99.90;;;;;;5023206;28;20925;-65
2022/12/10 11:21:12;;;;;;;22.02;16.90;;;4.00;99.90;;;;;;5029106;28;20738;-65
2022/12/10 11:23:43;;;;;;;20.90;16.83;;;4.00;99.90;;;;;;5024267;28;20690;-65
2022/12/10 11:26:36;;;;;;;23.27;17.58;;;4.50;99.90;;;;;;5022707;28;20248;-65
2022/12/10 11:29:16;;;;;;;23.60;17.08;;;4.30;99.90;;;;;;5023523;28;20599;-64
2022/12/10 11:31:44;;;;;;;19.85;15.93;;;4.40;99.90;;;;;;5021880;28;20216;-65
2022/12/10 11:34:42;;;;;;;21.95;17.15;;;4.30;99.90;;;;;;5019468;28;20939;-65
2022/12/10 11:37:29;;;;;;;22.50;14.95;;;4.50;99.90;;;;;;5021024;28;20211;-65
2022/12/10 11:39:55;;;;;;;20.75;15.10;;;4.30;99.90;;;;;;5024053;28;20190;-64
2022/12/10 11:42:46;;;;;;;24.07;15.80;;;4.20;99.90;;;;;;5025004;28;20251;-65
2022/12/10 11:45:23;;;;;;;22.35;16.95;;;4.50;99.90;;;;;;5028218;28;20710;-65
2022/12/10 11:48:24;;;;;;;22.55;15.95;;;4.40;99.90;;;;;;5027285;28;20220;-65
2022/12/10 11:50:56;;;;;;;20.38;15.80;;;4.50;99.90;;;;;;5031187;28;20187;-65
2022/12/10 11:53:50;;;;;;;22.23;15.50;;;4.90;99.90;;;;;;5027808;28;20180;-65
2022/12/10 11:56:34;;;;;;;19.63;14.82;;;4.60;99.90;;;;;;5021905;28;20274;-64
2022/12/10 11:59:16;;;;;;;19.20;14.70;;;4.60;99.90;;;;;;5023463;28;20184;-64
2022/12/10 12:02:00;;;;;;;20.15;15.15;;;4.60;99.90;;;;;;5027424;28;20349;-64
2022/12/10 12:04:47;;;;;;;20.85;15.02;;;4.80;99.90;;;;;;5029335;28;20255;-65
2022/12/10 12:07:43;;;;;;;19.08;13.98;;;4.70;99.90;;;;;;5024850;28;20346;-64
2022/12/10 12:10:52;;;;;;;17.73;13.90;;;4.80;99.90;;;;;;5031216;28;20530;-65
2022/12/10 12:13:35;;;;;;;21.35;14.30;;;4.60;99.90;;;;;;5027773;28;20190;-64
2022/12/10 12:16:05;;;;;;;21.83;15.43;;;4.60;99.90;;;;;;5022284;28;20326;-66
2022/12/10 12:18:48;;;;;;;18.83;13.60;;;4.00;99.90;;;;;;5023564;28;20271;-65
2022/12/10 12:21:16;;;;;;;17.35;13.40;;;4.90;99.90;;;;;;5028539;28;20254;-64
2022/12/10 12:24:02;;;;;;;19.90;15.05;;;4.70;99.90;;;;;;5026008;28;20188;-66
2022/12/10 12:26:38;;;;;;;18.35;14.90;;;4.90;99.90;;;;;;5027271;28;20234;-64
2022/12/10 12:29:26;;;;;;;18.17;14.90;;;4.50;99.90;;;;;;5022916;28;20226;-65
2022/12/10 12:32:02;;;;;;;17.20;13.80;;;4.60;99.90;;;;;;5022178;28;20212;-65
2022/12/10 12:35:07;;;;;;;19.15;14.85;;;4.90;99.90;;;;;;5025470;28;20217;-65
2022/12/10 12:37:41;;;;;;;20.88;15.00;;;5.10;99.90;;;;;;5026511;28;20205;-66
2022/12/10 12:40:24;;;;;;;18.65;14.60;;;4.60;99.90;;;;;;5027326;28;20225;-65
2022/12/10 12:43:03;;;;;;;20.15;15.85;;;4.80;99.90;;;;;;5020132;28;20663;-64
2022/12/10 12:45:40;;;;;;;18.65;14.57;;;4.90;99.90;;;;;;5025987;28;20701;-65
2022/12/10 12:48:15;;;;;;;22.75;15.90;;;4.60;99.90;;;;;;5028652;28;20187;-65
2022/12/10 12:50:41;;;;;;;18.45;14.27;;;4.70;99.90;;;;;;5026987;28;20601;-65
2022/12/10 12:53:12;;;;;;;19.60;15.70;;;4.80;99.90;;;;;;5028491;28;20717;-65
2022/12/10 12:55:55;;;;;;;24.20;16.80;;;4.90;99.90;;;;;;5026831;28;20210;-66
2022/12/10 12:58:38;;;;;;;19.95;15.55;;;4.50;99.90;;;;;;5026982;28;20185;-66
2022/12/10 13:01:30;;;;;;;28.73;22.90;;;4.70;99.90;;;;;;5017650;28;20185;-66
2022/12/10 13:03:57;;;;;;;18.95;15.20;;;4.80;99.90;;;;;;5024976;28;20211;-66